sensor_id;sensor_type;location;lat;lon;timestamp;P1;durP1;ratioP1;P2;durP2;ratioP2
38683;SDS011;24910;53.248;-6.134;2023-05-06T00:01:18;15.60;;;4.05;;
38683;SDS011;24910;53.248;-6.134;2023-05-06T00:03:47;8.23;;;3.40;;
38683;SDS011;24910;53.248;-6.134;2023-05-06T00:06:18;11.32;;;3.42;;
38683;SDS011;24910;53.248;-6.134;2023-05-06T00:08:47;15.57;;;4.03;;
38683;SDS011;24910;53.248;-6.134;2023-05-06T00:11:16;14.75;;;3.55;;
38683;SDS011;24910;53.248;-6.134;2023-05-06T00:13:46;15.85;;;4.13;;
38683;SDS011;24910;53.248;-6.134;2023-05-06T00:16:34;18.35;;;3.78;;
38683;SDS011;24910;53.248;-6.134;2023-05-06T00:19:17;15.50;;;3.88;;
38683;SDS011;24910;53.248;-6.134;2023-05-06T00:21:48;13.63;;;3.88;;
38683;SDS011;24910;53.248;-6.134;2023-05-06T00:24:17;14.97;;;3.90;;
38683;SDS011;24910;53.248;-6.134;2023-05-06T00:26:46;22.00;;;4.53;;
38683;SDS011;24910;53.248;-6.134;2023-05-06T00:29:15;19.30;;;4.13;;
38683;SDS011;24910;53.248;-6.134;2023-05-06T00:31:44;17.13;;;4.03;;
38683;SDS011;24910;53.248;-6.134;2023-05-06T00:34:13;11.77;;;4.20;;
38683;SDS011;24910;53.248;-6.134;2023-05-06T00:36:42;17.92;;;4.55;;
38683;SDS011;24910;53.248;-6.134;2023-05-06T00:39:13;14.52;;;3.72;;
38683;SDS011;24910;53.248;-6.134;2023-05-06T00:41:42;19.60;;;4.20;;
38683;SDS011;24910;53.248;-6.134;2023-05-06T00:44:11;17.95;;;3.85;;
38683;SDS011;24910;53.248;-6.134;2023-05-06T00:46:41;17.38;;;3.90;;
38683;SDS011;24910;53.248;-6.134;2023-05-06T00:49:10;14.52;;;3.70;;
38683;SDS011;24910;53.248;-6.134;2023-05-06T00:51:39;14.68;;;4.05;;
38683;SDS011;24910;53.248;-6.134;2023-05-06T00:54:09;14.52;;;3.97;;
38683;SDS011;24910;53.248;-6.134;2023-05-06T00:56:39;16.35;;;4.00;;
38683;SDS011;24910;53.248;-6.134;2023-05-06T00:59:08;15.38;;;4.18;;
38683;SDS011;24910;53.248;-6.134;2023-05-06T01:01:38;13.10;;;3.40;;
38683;SDS011;24910;53.248;-6.134;2023-05-06T01:04:15;19.13;;;4.13;;
38683;SDS011;24910;53.248;-6.134;2023-05-06T01:06:48;17.35;;;3.90;;
38683;SDS011;24910;53.248;-6.134;2023-05-06T01:09:23;13.57;;;3.83;;
38683;SDS011;24910;53.248;-6.134;2023-05-06T01:12:03;11.45;;;4.15;;
38683;SDS011;24910;53.248;-6.134;2023-05-06T01:14:57;13.02;;;3.80;;
38683;SDS011;24910;53.248;-6.134;2023-05-06T01:17:37;12.68;;;4.57;;
38683;SDS011;24910;53.248;-6.134;2023-05-06T01:20:16;16.17;;;3.78;;
38683;SDS011;24910;53.248;-6.134;2023-05-06T01:22:48;11.35;;;3.70;;
38683;SDS011;24910;53.248;-6.134;2023-05-06T01:25:18;14.00;;;3.90;;
38683;SDS011;24910;53.248;-6.134;2023-05-06T01:27:48;15.25;;;3.85;;
38683;SDS011;24910;53.248;-6.134;2023-05-06T01:30:18;19.13;;;4.05;;
38683;SDS011;24910;53.248;-6.134;2023-05-06T01:32:50;11.88;;;3.38;;
38683;SDS011;24910;53.248;-6.134;2023-05-06T01:35:39;13.63;;;4.18;;
38683;SDS011;24910;53.248;-6.134;2023-05-06T01:38:20;12.20;;;4.18;;
38683;SDS011;24910;53.248;-6.134;2023-05-06T01:40:58;14.88;;;3.88;;
38683;SDS011;24910;53.248;-6.134;2023-05-06T01:43:34;13.20;;;4.25;;
38683;SDS011;24910;53.248;-6.134;2023-05-06T01:46:08;22.05;;;4.43;;
38683;SDS011;24910;53.248;-6.134;2023-05-06T01:48:45;12.30;;;3.80;;
38683;SDS011;24910;53.248;-6.134;2023-05-06T01:51:16;16.20;;;4.00;;
38683;SDS011;24910;53.248;-6.134;2023-05-06T01:53:46;13.15;;;4.30;;
38683;SDS011;24910;53.248;-6.134;2023-05-06T01:56:16;13.18;;;4.35;;
38683;SDS011;24910;53.248;-6.134;2023-05-06T01:58:45;47.53;;;17.90;;
38683;SDS011;24910;53.248;-6.134;2023-05-06T02:01:14;70.20;;;27.38;;
38683;SDS011;24910;53.248;-6.134;2023-05-06T02:03:44;35.25;;;13.82;;
38683;SDS011;24910;53.248;-6.134;2023-05-06T02:06:13;33.13;;;12.68;;
38683;SDS011;24910;53.248;-6.134;2023-05-06T02:08:43;36.08;;;15.50;;
38683;SDS011;24910;53.248;-6.134;2023-05-06T02:11:18;36.72;;;13.05;;
38683;SDS011;24910;53.248;-6.134;2023-05-06T02:13:52;28.98;;;9.38;;
38683;SDS011;24910;53.248;-6.134;2023-05-06T02:19:23;17.77;;;4.57;;
38683;SDS011;24910;53.248;-6.134;2023-05-06T02:21:52;15.98;;;4.25;;
38683;SDS011;24910;53.248;-6.134;2023-05-06T02:24:22;37.10;;;17.80;;
38683;SDS011;24910;53.248;-6.134;2023-05-06T02:26:54;24.98;;;10.52;;
38683;SDS011;24910;53.248;-6.134;2023-05-06T02:29:23;17.67;;;6.47;;
38683;SDS011;24910;53.248;-6.134;2023-05-06T02:31:52;16.48;;;5.28;;
38683;SDS011;24910;53.248;-6.134;2023-05-06T02:34:22;21.10;;;4.72;;
38683;SDS011;24910;53.248;-6.134;2023-05-06T02:36:51;16.30;;;4.30;;
38683;SDS011;24910;53.248;-6.134;2023-05-06T02:39:21;12.90;;;3.93;;
38683;SDS011;24910;53.248;-6.134;2023-05-06T02:41:50;13.85;;;3.97;;
38683;SDS011;24910;53.248;-6.134;2023-05-06T02:44:21;20.23;;;4.40;;
38683;SDS011;24910;53.248;-6.134;2023-05-06T02:46:50;13.75;;;4.30;;
38683;SDS011;24910;53.248;-6.134;2023-05-06T02:49:19;14.05;;;4.32;;
38683;SDS011;24910;53.248;-6.134;2023-05-06T02:51:48;15.25;;;4.43;;
38683;SDS011;24910;53.248;-6.134;2023-05-06T02:54:21;18.67;;;5.38;;
38683;SDS011;24910;53.248;-6.134;2023-05-06T02:59:55;17.10;;;4.53;;
38683;SDS011;24910;53.248;-6.134;2023-05-06T03:02:25;18.08;;;5.70;;
38683;SDS011;24910;53.248;-6.134;2023-05-06T03:04:54;19.10;;;5.10;;
38683;SDS011;24910;53.248;-6.134;2023-05-06T03:07:24;18.33;;;4.95;;
38683;SDS011;24910;53.248;-6.134;2023-05-06T03:13:03;17.63;;;4.78;;
38683;SDS011;24910;53.248;-6.134;2023-05-06T03:15:33;17.77;;;4.95;;
38683;SDS011;24910;53.248;-6.134;2023-05-06T03:18:03;21.02;;;5.40;;
38683;SDS011;24910;53.248;-6.134;2023-05-06T03:20:32;16.20;;;4.90;;
38683;SDS011;24910;53.248;-6.134;2023-05-06T03:23:01;14.40;;;5.95;;
38683;SDS011;24910;53.248;-6.134;2023-05-06T03:25:30;18.77;;;6.28;;
38683;SDS011;24910;53.248;-6.134;2023-05-06T03:27:59;14.60;;;5.60;;
38683;SDS011;24910;53.248;-6.134;2023-05-06T03:30:30;17.02;;;5.50;;
38683;SDS011;24910;53.248;-6.134;2023-05-06T03:33:04;17.65;;;5.53;;
38683;SDS011;24910;53.248;-6.134;2023-05-06T03:35:34;17.33;;;5.68;;
38683;SDS011;24910;53.248;-6.134;2023-05-06T03:38:03;19.48;;;6.00;;
38683;SDS011;24910;53.248;-6.134;2023-05-06T03:40:39;19.75;;;6.40;;
38683;SDS011;24910;53.248;-6.134;2023-05-06T03:43:09;18.85;;;6.22;;
38683;SDS011;24910;53.248;-6.134;2023-05-06T03:45:42;16.88;;;7.47;;
38683;SDS011;24910;53.248;-6.134;2023-05-06T03:48:14;21.30;;;5.60;;
38683;SDS011;24910;53.248;-6.134;2023-05-06T03:50:48;23.05;;;6.90;;
38683;SDS011;24910;53.248;-6.134;2023-05-06T03:53:20;23.83;;;6.80;;
38683;SDS011;24910;53.248;-6.134;2023-05-06T03:55:51;14.88;;;5.75;;
38683;SDS011;24910;53.248;-6.134;2023-05-06T03:58:20;17.50;;;5.90;;
38683;SDS011;24910;53.248;-6.134;2023-05-06T04:00:51;16.27;;;5.72;;
38683;SDS011;24910;53.248;-6.134;2023-05-06T04:03:21;17.77;;;5.40;;
38683;SDS011;24910;53.248;-6.134;2023-05-06T04:05:51;14.93;;;5.43;;
38683;SDS011;24910;53.248;-6.134;2023-05-06T04:08:24;23.05;;;6.95;;
38683;SDS011;24910;53.248;-6.134;2023-05-06T04:10:56;19.10;;;5.43;;
38683;SDS011;24910;53.248;-6.134;2023-05-06T04:13:28;18.00;;;5.00;;
38683;SDS011;24910;53.248;-6.134;2023-05-06T04:22:08;15.57;;;5.03;;
38683;SDS011;24910;53.248;-6.134;2023-05-06T04:24:37;25.98;;;5.07;;
38683;SDS011;24910;53.248;-6.134;2023-05-06T04:27:09;15.15;;;5.15;;
38683;SDS011;24910;53.248;-6.134;2023-05-06T04:29:40;19.67;;;5.63;;
38683;SDS011;24910;53.248;-6.134;2023-05-06T04:32:09;21.27;;;5.80;;
38683;SDS011;24910;53.248;-6.134;2023-05-06T04:34:40;13.63;;;5.10;;
38683;SDS011;24910;53.248;-6.134;2023-05-06T04:37:13;14.63;;;5.70;;
38683;SDS011;24910;53.248;-6.134;2023-05-06T04:39:47;16.95;;;5.80;;
38683;SDS011;24910;53.248;-6.134;2023-05-06T04:45:17;19.30;;;7.43;;
38683;SDS011;24910;53.248;-6.134;2023-05-06T04:47:50;24.35;;;8.25;;
38683;SDS011;24910;53.248;-6.134;2023-05-06T04:50:23;19.73;;;7.70;;
38683;SDS011;24910;53.248;-6.134;2023-05-06T04:55:22;19.85;;;8.30;;
38683;SDS011;24910;53.248;-6.134;2023-05-06T04:57:53;23.02;;;7.90;;
38683;SDS011;24910;53.248;-6.134;2023-05-06T05:00:30;22.48;;;8.65;;
38683;SDS011;24910;53.248;-6.134;2023-05-06T05:03:01;25.05;;;9.98;;
38683;SDS011;24910;53.248;-6.134;2023-05-06T05:05:41;23.88;;;8.82;;
38683;SDS011;24910;53.248;-6.134;2023-05-06T05:08:30;20.10;;;8.40;;
38683;SDS011;24910;53.248;-6.134;2023-05-06T05:11:15;24.65;;;8.57;;
38683;SDS011;24910;53.248;-6.134;2023-05-06T05:13:53;26.30;;;8.68;;
38683;SDS011;24910;53.248;-6.134;2023-05-06T05:16:30;20.73;;;8.75;;
38683;SDS011;24910;53.248;-6.134;2023-05-06T05:19:24;26.13;;;8.90;;
38683;SDS011;24910;53.248;-6.134;2023-05-06T05:21:58;24.98;;;9.38;;
38683;SDS011;24910;53.248;-6.134;2023-05-06T05:27:50;30.85;;;11.13;;
38683;SDS011;24910;53.248;-6.134;2023-05-06T05:30:19;26.10;;;9.90;;
38683;SDS011;24910;53.248;-6.134;2023-05-06T05:32:52;26.83;;;10.35;;
38683;SDS011;24910;53.248;-6.134;2023-05-06T05:35:24;28.08;;;10.18;;
38683;SDS011;24910;53.248;-6.134;2023-05-06T05:37:55;28.77;;;10.02;;
38683;SDS011;24910;53.248;-6.134;2023-05-06T05:40:24;27.47;;;9.37;;
38683;SDS011;24910;53.248;-6.134;2023-05-06T05:42:53;23.77;;;9.90;;
38683;SDS011;24910;53.248;-6.134;2023-05-06T05:45:31;29.77;;;9.82;;
38683;SDS011;24910;53.248;-6.134;2023-05-06T05:48:00;28.00;;;9.15;;
38683;SDS011;24910;53.248;-6.134;2023-05-06T05:50:30;28.25;;;8.30;;
38683;SDS011;24910;53.248;-6.134;2023-05-06T05:53:00;22.17;;;8.07;;
38683;SDS011;24910;53.248;-6.134;2023-05-06T05:55:30;21.17;;;8.05;;
38683;SDS011;24910;53.248;-6.134;2023-05-06T05:57:59;21.13;;;7.32;;
38683;SDS011;24910;53.248;-6.134;2023-05-06T06:00:29;22.23;;;6.90;;
38683;SDS011;24910;53.248;-6.134;2023-05-06T06:03:05;19.98;;;6.97;;
38683;SDS011;24910;53.248;-6.134;2023-05-06T06:05:34;22.75;;;6.25;;
38683;SDS011;24910;53.248;-6.134;2023-05-06T06:08:05;25.67;;;6.80;;
38683;SDS011;24910;53.248;-6.134;2023-05-06T06:10:34;17.92;;;6.05;;
38683;SDS011;24910;53.248;-6.134;2023-05-06T06:13:10;18.13;;;6.50;;
38683;SDS011;24910;53.248;-6.134;2023-05-06T06:15:39;19.35;;;6.40;;
38683;SDS011;24910;53.248;-6.134;2023-05-06T06:18:09;22.30;;;6.60;;
38683;SDS011;24910;53.248;-6.134;2023-05-06T06:20:38;15.68;;;6.30;;
38683;SDS011;24910;53.248;-6.134;2023-05-06T06:23:10;23.98;;;7.15;;
38683;SDS011;24910;53.248;-6.134;2023-05-06T06:25:41;23.73;;;6.75;;
38683;SDS011;24910;53.248;-6.134;2023-05-06T06:28:10;21.83;;;6.03;;
38683;SDS011;24910;53.248;-6.134;2023-05-06T06:30:39;20.42;;;6.43;;
38683;SDS011;24910;53.248;-6.134;2023-05-06T06:33:08;19.35;;;5.82;;
38683;SDS011;24910;53.248;-6.134;2023-05-06T06:35:39;16.95;;;5.43;;
38683;SDS011;24910;53.248;-6.134;2023-05-06T06:38:09;18.15;;;6.05;;
38683;SDS011;24910;53.248;-6.134;2023-05-06T06:40:38;19.53;;;5.47;;
38683;SDS011;24910;53.248;-6.134;2023-05-06T06:43:08;18.55;;;5.05;;
38683;SDS011;24910;53.248;-6.134;2023-05-06T06:45:55;14.30;;;4.82;;
38683;SDS011;24910;53.248;-6.134;2023-05-06T06:48:24;19.27;;;5.68;;
38683;SDS011;24910;53.248;-6.134;2023-05-06T06:50:53;12.57;;;4.90;;
38683;SDS011;24910;53.248;-6.134;2023-05-06T06:53:24;20.08;;;5.45;;
38683;SDS011;24910;53.248;-6.134;2023-05-06T06:55:53;15.97;;;5.10;;
38683;SDS011;24910;53.248;-6.134;2023-05-06T06:58:24;15.93;;;5.45;;
38683;SDS011;24910;53.248;-6.134;2023-05-06T07:00:53;22.45;;;4.97;;
38683;SDS011;24910;53.248;-6.134;2023-05-06T07:03:22;17.65;;;5.15;;
38683;SDS011;24910;53.248;-6.134;2023-05-06T07:05:51;16.85;;;5.35;;
38683;SDS011;24910;53.248;-6.134;2023-05-06T07:08:20;13.43;;;4.57;;
38683;SDS011;24910;53.248;-6.134;2023-05-06T07:10:51;17.95;;;5.25;;
38683;SDS011;24910;53.248;-6.134;2023-05-06T07:13:21;20.75;;;5.22;;
38683;SDS011;24910;53.248;-6.134;2023-05-06T07:15:50;15.48;;;4.50;;
38683;SDS011;24910;53.248;-6.134;2023-05-06T07:18:19;16.02;;;4.15;;
38683;SDS011;24910;53.248;-6.134;2023-05-06T07:20:49;15.35;;;4.40;;
38683;SDS011;24910;53.248;-6.134;2023-05-06T07:23:18;17.42;;;4.90;;
38683;SDS011;24910;53.248;-6.134;2023-05-06T07:25:47;21.10;;;4.45;;
38683;SDS011;24910;53.248;-6.134;2023-05-06T07:28:18;10.55;;;4.20;;
38683;SDS011;24910;53.248;-6.134;2023-05-06T07:30:47;12.20;;;4.43;;
38683;SDS011;24910;53.248;-6.134;2023-05-06T07:33:17;12.18;;;3.72;;
38683;SDS011;24910;53.248;-6.134;2023-05-06T07:35:46;18.50;;;4.00;;
38683;SDS011;24910;53.248;-6.134;2023-05-06T07:38:16;15.98;;;4.30;;
38683;SDS011;24910;53.248;-6.134;2023-05-06T07:40:45;17.52;;;3.53;;
38683;SDS011;24910;53.248;-6.134;2023-05-06T07:43:14;12.45;;;3.60;;
38683;SDS011;24910;53.248;-6.134;2023-05-06T07:45:45;12.65;;;4.15;;
38683;SDS011;24910;53.248;-6.134;2023-05-06T07:48:15;14.20;;;4.33;;
38683;SDS011;24910;53.248;-6.134;2023-05-06T07:50:46;13.68;;;3.60;;
38683;SDS011;24910;53.248;-6.134;2023-05-06T07:53:15;14.82;;;3.92;;
38683;SDS011;24910;53.248;-6.134;2023-05-06T07:55:45;12.13;;;3.47;;
38683;SDS011;24910;53.248;-6.134;2023-05-06T07:58:15;16.67;;;3.70;;
38683;SDS011;24910;53.248;-6.134;2023-05-06T08:00:47;9.80;;;3.20;;
38683;SDS011;24910;53.248;-6.134;2023-05-06T08:03:16;15.00;;;3.57;;
38683;SDS011;24910;53.248;-6.134;2023-05-06T08:05:45;13.93;;;4.03;;
38683;SDS011;24910;53.248;-6.134;2023-05-06T08:08:14;14.57;;;4.30;;
38683;SDS011;24910;53.248;-6.134;2023-05-06T08:10:43;14.75;;;4.07;;
38683;SDS011;24910;53.248;-6.134;2023-05-06T08:13:12;13.32;;;4.40;;
38683;SDS011;24910;53.248;-6.134;2023-05-06T08:15:42;17.60;;;4.75;;
38683;SDS011;24910;53.248;-6.134;2023-05-06T08:18:12;19.98;;;5.07;;
38683;SDS011;24910;53.248;-6.134;2023-05-06T08:20:49;19.77;;;4.82;;
38683;SDS011;24910;53.248;-6.134;2023-05-06T08:23:18;13.45;;;4.00;;
38683;SDS011;24910;53.248;-6.134;2023-05-06T08:25:47;17.95;;;4.63;;
38683;SDS011;24910;53.248;-6.134;2023-05-06T08:28:16;14.77;;;4.47;;
38683;SDS011;24910;53.248;-6.134;2023-05-06T08:30:45;18.60;;;5.13;;
38683;SDS011;24910;53.248;-6.134;2023-05-06T08:33:18;19.92;;;4.80;;
38683;SDS011;24910;53.248;-6.134;2023-05-06T08:35:49;21.80;;;5.95;;
38683;SDS011;24910;53.248;-6.134;2023-05-06T08:38:18;19.77;;;5.78;;
38683;SDS011;24910;53.248;-6.134;2023-05-06T08:40:48;24.95;;;6.43;;
38683;SDS011;24910;53.248;-6.134;2023-05-06T08:43:19;21.23;;;5.70;;
38683;SDS011;24910;53.248;-6.134;2023-05-06T08:45:48;22.42;;;6.28;;
38683;SDS011;24910;53.248;-6.134;2023-05-06T08:48:19;20.48;;;5.85;;
38683;SDS011;24910;53.248;-6.134;2023-05-06T08:50:48;20.70;;;5.57;;
38683;SDS011;24910;53.248;-6.134;2023-05-06T08:55:48;25.85;;;6.78;;
38683;SDS011;24910;53.248;-6.134;2023-05-06T08:58:21;21.55;;;6.40;;
38683;SDS011;24910;53.248;-6.134;2023-05-06T09:00:52;21.83;;;6.50;;
38683;SDS011;24910;53.248;-6.134;2023-05-06T09:03:22;28.75;;;7.10;;
38683;SDS011;24910;53.248;-6.134;2023-05-06T09:05:52;24.10;;;7.00;;
38683;SDS011;24910;53.248;-6.134;2023-05-06T09:08:21;23.77;;;6.43;;
38683;SDS011;24910;53.248;-6.134;2023-05-06T09:10:50;19.00;;;6.13;;
38683;SDS011;24910;53.248;-6.134;2023-05-06T09:13:19;21.95;;;6.30;;
38683;SDS011;24910;53.248;-6.134;2023-05-06T09:15:51;29.52;;;7.40;;
38683;SDS011;24910;53.248;-6.134;2023-05-06T09:18:23;28.48;;;7.35;;
38683;SDS011;24910;53.248;-6.134;2023-05-06T09:20:51;24.70;;;7.07;;
38683;SDS011;24910;53.248;-6.134;2023-05-06T09:23:20;21.15;;;7.22;;
38683;SDS011;24910;53.248;-6.134;2023-05-06T09:25:50;23.38;;;6.63;;
38683;SDS011;24910;53.248;-6.134;2023-05-06T09:28:19;28.40;;;6.53;;
38683;SDS011;24910;53.248;-6.134;2023-05-06T09:30:48;29.83;;;7.15;;
38683;SDS011;24910;53.248;-6.134;2023-05-06T09:33:18;26.17;;;7.20;;
38683;SDS011;24910;53.248;-6.134;2023-05-06T09:35:50;26.83;;;7.80;;
38683;SDS011;24910;53.248;-6.134;2023-05-06T09:38:19;32.88;;;7.90;;
38683;SDS011;24910;53.248;-6.134;2023-05-06T09:40:48;36.25;;;7.65;;
38683;SDS011;24910;53.248;-6.134;2023-05-06T09:43:18;37.40;;;8.07;;
38683;SDS011;24910;53.248;-6.134;2023-05-06T09:45:47;35.70;;;7.40;;
38683;SDS011;24910;53.248;-6.134;2023-05-06T09:48:16;34.20;;;7.75;;
38683;SDS011;24910;53.248;-6.134;2023-05-06T09:50:45;30.80;;;8.00;;
38683;SDS011;24910;53.248;-6.134;2023-05-06T09:53:17;37.33;;;8.35;;
38683;SDS011;24910;53.248;-6.134;2023-05-06T09:55:47;31.48;;;8.32;;
38683;SDS011;24910;53.248;-6.134;2023-05-06T09:58:17;47.85;;;8.75;;
38683;SDS011;24910;53.248;-6.134;2023-05-06T10:00:47;43.17;;;9.68;;
38683;SDS011;24910;53.248;-6.134;2023-05-06T10:03:19;42.53;;;7.88;;
38683;SDS011;24910;53.248;-6.134;2023-05-06T10:05:49;44.08;;;9.05;;
38683;SDS011;24910;53.248;-6.134;2023-05-06T10:08:21;31.85;;;8.00;;
38683;SDS011;24910;53.248;-6.134;2023-05-06T10:10:51;31.25;;;7.80;;
38683;SDS011;24910;53.248;-6.134;2023-05-06T10:13:21;29.60;;;7.22;;
38683;SDS011;24910;53.248;-6.134;2023-05-06T10:15:52;20.65;;;6.88;;
38683;SDS011;24910;53.248;-6.134;2023-05-06T10:18:22;19.85;;;5.95;;
38683;SDS011;24910;53.248;-6.134;2023-05-06T10:20:54;23.17;;;6.35;;
38683;SDS011;24910;53.248;-6.134;2023-05-06T10:23:27;21.73;;;5.43;;
38683;SDS011;24910;53.248;-6.134;2023-05-06T10:26:04;19.98;;;4.95;;
38683;SDS011;24910;53.248;-6.134;2023-05-06T10:28:34;23.45;;;5.65;;
38683;SDS011;24910;53.248;-6.134;2023-05-06T10:31:09;23.58;;;5.97;;
38683;SDS011;24910;53.248;-6.134;2023-05-06T10:33:40;15.95;;;5.68;;
38683;SDS011;24910;53.248;-6.134;2023-05-06T10:36:14;20.92;;;5.25;;
38683;SDS011;24910;53.248;-6.134;2023-05-06T10:38:49;21.02;;;6.18;;
38683;SDS011;24910;53.248;-6.134;2023-05-06T10:41:23;26.13;;;5.55;;
38683;SDS011;24910;53.248;-6.134;2023-05-06T10:43:54;19.55;;;4.85;;
38683;SDS011;24910;53.248;-6.134;2023-05-06T10:46:28;17.63;;;5.35;;
38683;SDS011;24910;53.248;-6.134;2023-05-06T10:49:16;22.77;;;5.82;;
38683;SDS011;24910;53.248;-6.134;2023-05-06T10:52:07;18.33;;;4.68;;
38683;SDS011;24910;53.248;-6.134;2023-05-06T10:54:49;17.75;;;4.85;;
38683;SDS011;24910;53.248;-6.134;2023-05-06T10:57:18;16.02;;;4.22;;
38683;SDS011;24910;53.248;-6.134;2023-05-06T10:59:53;22.05;;;4.80;;
38683;SDS011;24910;53.248;-6.134;2023-05-06T11:02:22;20.92;;;4.70;;
38683;SDS011;24910;53.248;-6.134;2023-05-06T11:04:58;18.73;;;4.32;;
38683;SDS011;24910;53.248;-6.134;2023-05-06T11:07:28;17.23;;;4.55;;
38683;SDS011;24910;53.248;-6.134;2023-05-06T11:10:00;17.90;;;4.13;;
38683;SDS011;24910;53.248;-6.134;2023-05-06T11:15:22;19.90;;;4.75;;
38683;SDS011;24910;53.248;-6.134;2023-05-06T11:17:53;14.30;;;4.30;;
38683;SDS011;24910;53.248;-6.134;2023-05-06T11:20:24;13.00;;;3.85;;
38683;SDS011;24910;53.248;-6.134;2023-05-06T11:22:53;15.20;;;3.80;;
38683;SDS011;24910;53.248;-6.134;2023-05-06T11:28:13;18.38;;;4.70;;
38683;SDS011;24910;53.248;-6.134;2023-05-06T11:30:43;15.30;;;4.47;;
38683;SDS011;24910;53.248;-6.134;2023-05-06T11:33:22;18.75;;;4.85;;
38683;SDS011;24910;53.248;-6.134;2023-05-06T11:35:54;14.73;;;4.53;;
38683;SDS011;24910;53.248;-6.134;2023-05-06T11:38:23;14.27;;;4.45;;
38683;SDS011;24910;53.248;-6.134;2023-05-06T11:40:55;18.80;;;4.07;;
38683;SDS011;24910;53.248;-6.134;2023-05-06T11:43:24;18.50;;;4.90;;
38683;SDS011;24910;53.248;-6.134;2023-05-06T11:45:53;24.23;;;5.40;;
38683;SDS011;24910;53.248;-6.134;2023-05-06T11:48:22;19.75;;;5.82;;
38683;SDS011;24910;53.248;-6.134;2023-05-06T11:50:51;16.88;;;4.85;;
38683;SDS011;24910;53.248;-6.134;2023-05-06T11:53:22;20.42;;;6.28;;
38683;SDS011;24910;53.248;-6.134;2023-05-06T11:55:52;22.38;;;5.70;;
38683;SDS011;24910;53.248;-6.134;2023-05-06T11:58:24;20.10;;;5.20;;
38683;SDS011;24910;53.248;-6.134;2023-05-06T12:00:55;16.13;;;4.93;;
38683;SDS011;24910;53.248;-6.134;2023-05-06T12:03:25;15.45;;;4.50;;
38683;SDS011;24910;53.248;-6.134;2023-05-06T12:05:56;21.45;;;4.45;;
38683;SDS011;24910;53.248;-6.134;2023-05-06T12:08:26;19.48;;;5.40;;
38683;SDS011;24910;53.248;-6.134;2023-05-06T12:10:57;27.25;;;5.97;;
38683;SDS011;24910;53.248;-6.134;2023-05-06T12:15:58;33.45;;;8.45;;
38683;SDS011;24910;53.248;-6.134;2023-05-06T12:18:27;35.55;;;7.88;;
38683;SDS011;24910;53.248;-6.134;2023-05-06T12:20:59;41.42;;;8.57;;
38683;SDS011;24910;53.248;-6.134;2023-05-06T12:23:29;41.45;;;9.30;;
38683;SDS011;24910;53.248;-6.134;2023-05-06T12:25:59;44.65;;;9.85;;
38683;SDS011;24910;53.248;-6.134;2023-05-06T12:28:32;35.83;;;8.35;;
38683;SDS011;24910;53.248;-6.134;2023-05-06T12:31:16;38.08;;;8.65;;
38683;SDS011;24910;53.248;-6.134;2023-05-06T12:33:46;36.53;;;7.93;;
38683;SDS011;24910;53.248;-6.134;2023-05-06T12:36:17;29.20;;;7.73;;
38683;SDS011;24910;53.248;-6.134;2023-05-06T12:38:49;27.35;;;7.32;;
38683;SDS011;24910;53.248;-6.134;2023-05-06T12:41:19;27.77;;;6.72;;
38683;SDS011;24910;53.248;-6.134;2023-05-06T12:43:50;26.33;;;6.25;;
38683;SDS011;24910;53.248;-6.134;2023-05-06T12:46:19;29.20;;;7.35;;
38683;SDS011;24910;53.248;-6.134;2023-05-06T12:48:55;23.48;;;6.43;;
38683;SDS011;24910;53.248;-6.134;2023-05-06T12:51:25;22.80;;;6.38;;
38683;SDS011;24910;53.248;-6.134;2023-05-06T12:53:55;22.60;;;6.85;;
38683;SDS011;24910;53.248;-6.134;2023-05-06T12:56:24;21.30;;;6.15;;
38683;SDS011;24910;53.248;-6.134;2023-05-06T12:58:58;17.55;;;5.30;;
38683;SDS011;24910;53.248;-6.134;2023-05-06T13:01:28;19.52;;;5.50;;
38683;SDS011;24910;53.248;-6.134;2023-05-06T13:03:58;17.40;;;5.80;;
38683;SDS011;24910;53.248;-6.134;2023-05-06T13:06:27;18.00;;;5.95;;
38683;SDS011;24910;53.248;-6.134;2023-05-06T13:08:56;24.92;;;6.60;;
38683;SDS011;24910;53.248;-6.134;2023-05-06T13:11:25;20.58;;;6.80;;
38683;SDS011;24910;53.248;-6.134;2023-05-06T13:13:54;20.55;;;6.55;;
38683;SDS011;24910;53.248;-6.134;2023-05-06T13:16:25;23.88;;;7.22;;
38683;SDS011;24910;53.248;-6.134;2023-05-06T13:18:55;22.08;;;6.93;;
38683;SDS011;24910;53.248;-6.134;2023-05-06T13:21:24;27.35;;;7.15;;
38683;SDS011;24910;53.248;-6.134;2023-05-06T13:23:53;28.38;;;7.82;;
38683;SDS011;24910;53.248;-6.134;2023-05-06T13:26:22;30.67;;;7.70;;
38683;SDS011;24910;53.248;-6.134;2023-05-06T13:28:51;25.95;;;6.97;;
38683;SDS011;24910;53.248;-6.134;2023-05-06T13:31:21;27.35;;;7.05;;
38683;SDS011;24910;53.248;-6.134;2023-05-06T13:33:58;24.02;;;7.30;;
38683;SDS011;24910;53.248;-6.134;2023-05-06T13:36:27;25.75;;;7.50;;
38683;SDS011;24910;53.248;-6.134;2023-05-06T13:38:57;21.70;;;6.72;;
38683;SDS011;24910;53.248;-6.134;2023-05-06T13:41:26;24.85;;;7.28;;
38683;SDS011;24910;53.248;-6.134;2023-05-06T13:43:55;25.95;;;7.25;;
38683;SDS011;24910;53.248;-6.134;2023-05-06T13:46:24;23.02;;;7.20;;
38683;SDS011;24910;53.248;-6.134;2023-05-06T13:48:54;24.67;;;7.05;;
38683;SDS011;24910;53.248;-6.134;2023-05-06T13:51:24;21.73;;;6.68;;
38683;SDS011;24910;53.248;-6.134;2023-05-06T13:53:56;23.73;;;7.18;;
38683;SDS011;24910;53.248;-6.134;2023-05-06T13:56:26;22.35;;;6.60;;
38683;SDS011;24910;53.248;-6.134;2023-05-06T13:58:55;23.58;;;6.88;;
38683;SDS011;24910;53.248;-6.134;2023-05-06T14:01:24;24.08;;;6.85;;
38683;SDS011;24910;53.248;-6.134;2023-05-06T14:03:53;22.25;;;6.18;;
38683;SDS011;24910;53.248;-6.134;2023-05-06T14:06:22;19.77;;;5.60;;
38683;SDS011;24910;53.248;-6.134;2023-05-06T14:08:52;16.05;;;5.45;;
38683;SDS011;24910;53.248;-6.134;2023-05-06T14:11:21;18.97;;;6.10;;
38683;SDS011;24910;53.248;-6.134;2023-05-06T14:13:50;21.13;;;5.68;;
38683;SDS011;24910;53.248;-6.134;2023-05-06T14:16:19;21.45;;;5.35;;
38683;SDS011;24910;53.248;-6.134;2023-05-06T14:18:49;23.65;;;5.75;;
38683;SDS011;24910;53.248;-6.134;2023-05-06T14:21:18;21.30;;;6.30;;
38683;SDS011;24910;53.248;-6.134;2023-05-06T14:23:47;24.67;;;6.32;;
38683;SDS011;24910;53.248;-6.134;2023-05-06T14:26:17;22.77;;;6.05;;
38683;SDS011;24910;53.248;-6.134;2023-05-06T14:28:47;18.88;;;6.18;;
38683;SDS011;24910;53.248;-6.134;2023-05-06T14:31:16;21.92;;;6.85;;
38683;SDS011;24910;53.248;-6.134;2023-05-06T14:33:45;23.90;;;6.90;;
38683;SDS011;24910;53.248;-6.134;2023-05-06T14:36:16;25.58;;;7.72;;
38683;SDS011;24910;53.248;-6.134;2023-05-06T14:38:46;23.73;;;7.47;;
38683;SDS011;24910;53.248;-6.134;2023-05-06T14:41:15;26.42;;;8.40;;
38683;SDS011;24910;53.248;-6.134;2023-05-06T14:43:45;26.63;;;8.40;;
38683;SDS011;24910;53.248;-6.134;2023-05-06T14:46:14;25.90;;;8.27;;
38683;SDS011;24910;53.248;-6.134;2023-05-06T14:48:44;26.63;;;7.78;;
38683;SDS011;24910;53.248;-6.134;2023-05-06T14:51:13;22.20;;;7.88;;
38683;SDS011;24910;53.248;-6.134;2023-05-06T14:53:42;29.02;;;8.50;;
38683;SDS011;24910;53.248;-6.134;2023-05-06T14:56:11;28.90;;;8.68;;
38683;SDS011;24910;53.248;-6.134;2023-05-06T14:58:40;24.05;;;8.63;;
38683;SDS011;24910;53.248;-6.134;2023-05-06T15:01:10;27.33;;;8.65;;
38683;SDS011;24910;53.248;-6.134;2023-05-06T15:03:40;30.77;;;8.30;;
38683;SDS011;24910;53.248;-6.134;2023-05-06T15:06:09;29.33;;;9.20;;
38683;SDS011;24910;53.248;-6.134;2023-05-06T15:08:38;26.42;;;7.88;;
38683;SDS011;24910;53.248;-6.134;2023-05-06T15:11:07;26.85;;;8.18;;
38683;SDS011;24910;53.248;-6.134;2023-05-06T15:13:37;28.98;;;7.93;;
38683;SDS011;24910;53.248;-6.134;2023-05-06T15:16:06;29.10;;;8.23;;
38683;SDS011;24910;53.248;-6.134;2023-05-06T15:18:39;27.27;;;8.05;;